Time;durP1;ratioP1;P1;durP2;ratioP2;P2;SDS_P1;SDS_P2;PMS_P1;PMS_P2;Temp;Humidity;BMP_temperature;BMP_pressure;BME280_temperature;BME280_humidity;BME280_pressure;Samples;Min_cycle;Max_cycle;Signal;HPM_P1;HPM_P2
2022/03/30 00:00:39;;;;;;;22.67;15.60;;;12.60;86.50;;;;;;5070729;28;20033;-63
2022/03/30 00:03:05;;;;;;;20.33;13.77;;;12.60;86.60;;;;;;5072720;28;20028;-62
2022/03/30 00:05:31;;;;;;;22.17;14.43;;;12.60;86.50;;;;;;5075329;28;20029;-63
2022/03/30 00:07:57;;;;;;;23.40;14.48;;;12.70;86.40;;;;;;5072608;28;20032;-62
2022/03/30 00:10:23;;;;;;;25.83;15.18;;;12.50;86.60;;;;;;5074038;28;20020;-62
2022/03/30 00:12:49;;;;;;;21.83;14.40;;;12.40;86.90;;;;;;5073744;28;20029;-63
2022/03/30 00:15:16;;;;;;;22.90;14.77;;;12.50;87.40;;;;;;5073157;28;20033;-64
2022/03/30 00:17:41;;;;;;;23.70;15.90;;;12.40;87.20;;;;;;5073104;28;20041;-65
2022/03/30 00:20:08;;;;;;;21.60;14.75;;;12.40;87.40;;;;;;5071878;28;20028;-64
2022/03/30 00:22:33;;;;;;;24.48;14.35;;;12.30;87.50;;;;;;5072136;28;20024;-64
2022/03/30 00:24:59;;;;;;;25.13;15.50;;;12.40;87.60;;;;;;5067369;28;20534;-63
2022/03/30 00:27:25;;;;;;;27.02;16.65;;;12.30;87.80;;;;;;5065309;28;20493;-65
2022/03/30 00:29:51;;;;;;;24.27;15.80;;;12.40;87.70;;;;;;5071973;28;20028;-64
2022/03/30 00:32:17;;;;;;;23.10;14.88;;;12.30;87.70;;;;;;5070998;28;20484;-68
2022/03/30 00:34:43;;;;;;;24.35;14.98;;;12.30;87.90;;;;;;5071903;28;20025;-63
2022/03/30 00:37:09;;;;;;;30.42;16.05;;;12.40;87.90;;;;;;5071967;28;20037;-62
2022/03/30 00:39:35;;;;;;;20.75;15.60;;;12.30;88.00;;;;;;5071554;28;20029;-64
2022/03/30 00:42:03;;;;;;;29.48;16.77;;;12.40;88.00;;;;;;5071968;28;20052;-63
2022/03/30 00:44:29;;;;;;;31.00;16.95;;;12.30;88.30;;;;;;5071235;28;20462;-63
2022/03/30 00:46:55;;;;;;;26.33;16.73;;;12.30;88.60;;;;;;5072401;28;20025;-63
2022/03/30 00:49:21;;;;;;;29.30;17.20;;;12.20;88.80;;;;;;5071947;28;20115;-63
2022/03/30 00:51:50;;;;;;;25.05;16.83;;;12.20;89.00;;;;;;5071914;28;20060;-63
2022/03/30 00:54:16;;;;;;;27.05;16.73;;;12.10;89.80;;;;;;5071383;28;20028;-67
2022/03/30 00:56:44;;;;;;;27.05;17.15;;;12.10;89.80;;;;;;5077638;28;20047;-64
2022/03/30 00:59:11;;;;;;;29.83;17.65;;;12.10;90.00;;;;;;5075412;28;20031;-64
2022/03/30 01:01:36;;;;;;;26.08;16.25;;;12.10;90.10;;;;;;5092821;28;20035;-65
2022/03/30 01:04:04;;;;;;;30.95;18.83;;;12.10;90.20;;;;;;5093453;28;20020;-67
2022/03/30 01:06:30;;;;;;;26.50;16.80;;;12.10;90.00;;;;;;5074824;28;20024;-66
2022/03/30 01:08:55;;;;;;;26.45;16.75;;;12.10;90.20;;;;;;5075529;28;20081;-65
2022/03/30 01:11:22;;;;;;;26.52;17.67;;;12.00;90.30;;;;;;5074679;28;20515;-62
2022/03/30 01:13:49;;;;;;;28.05;17.08;;;11.90;90.50;;;;;;5075397;28;20024;-66
2022/03/30 01:16:16;;;;;;;33.50;18.45;;;11.90;90.70;;;;;;5093338;28;20024;-68
2022/03/30 01:18:42;;;;;;;26.98;17.65;;;11.90;90.70;;;;;;5075169;28;20031;-65
2022/03/30 01:21:08;;;;;;;27.85;18.02;;;11.80;90.90;;;;;;5092846;28;20381;-64
2022/03/30 01:23:40;;;;;;;29.73;18.25;;;11.90;90.90;;;;;;5074558;28;20036;-64
2022/03/30 01:26:06;;;;;;;31.67;19.85;;;11.90;90.90;;;;;;5092093;28;20089;-63
2022/03/30 01:28:33;;;;;;;33.20;17.73;;;11.90;90.90;;;;;;5074230;28;20028;-63
2022/03/30 01:33:45;;;;;;;29.52;18.90;;;11.80;91.10;;;;;;5092851;28;20097;-65
2022/03/30 01:36:12;;;;;;;30.73;19.10;;;11.80;91.30;;;;;;5074764;28;20039;-64
2022/03/30 01:38:38;;;;;;;26.95;18.45;;;11.80;91.50;;;;;;5074000;28;20028;-65
2022/03/30 01:41:04;;;;;;;31.20;18.92;;;11.70;91.60;;;;;;5074498;28;20519;-63
2022/03/30 01:43:30;;;;;;;33.55;18.02;;;11.70;91.70;;;;;;5074076;28;20028;-64
2022/03/30 01:45:57;;;;;;;30.48;18.75;;;11.70;91.70;;;;;;5092380;28;20059;-64
2022/03/30 01:48:24;;;;;;;27.35;17.83;;;11.70;91.80;;;;;;5074430;28;20118;-64
2022/03/30 01:50:50;;;;;;;32.75;19.30;;;11.60;92.00;;;;;;5093298;28;20021;-63
2022/03/30 01:53:16;;;;;;;28.20;19.63;;;11.60;92.10;;;;;;5092839;28;20082;-64
2022/03/30 01:55:42;;;;;;;31.95;18.73;;;11.70;92.10;;;;;;5073148;28;20028;-63
2022/03/30 01:58:09;;;;;;;31.63;19.77;;;11.50;92.40;;;;;;5093284;28;20071;-64
2022/03/30 02:00:35;;;;;;;29.25;18.92;;;11.50;92.40;;;;;;5094605;28;20056;-64
2022/03/30 02:03:02;;;;;;;31.05;18.88;;;11.50;92.60;;;;;;5078052;28;20437;-64
2022/03/30 02:05:28;;;;;;;29.55;18.05;;;11.40;92.90;;;;;;5095283;28;20542;-63
2022/03/30 02:07:54;;;;;;;29.52;18.80;;;11.50;92.80;;;;;;5078222;28;20058;-64
2022/03/30 02:10:20;;;;;;;27.95;17.65;;;11.50;92.90;;;;;;5095233;28;20532;-69
2022/03/30 02:12:46;;;;;;;29.30;18.60;;;11.50;92.90;;;;;;5096319;28;20037;-65
2022/03/30 02:15:13;;;;;;;32.40;18.88;;;11.50;92.90;;;;;;5096439;28;20067;-66
2022/03/30 02:17:40;;;;;;;32.05;19.35;;;11.50;93.10;;;;;;5095684;28;20032;-69
2022/03/30 02:20:08;;;;;;;27.60;19.65;;;11.50;93.20;;;;;;5077478;28;20020;-64
2022/03/30 02:22:34;;;;;;;29.23;19.20;;;11.50;93.30;;;;;;5077508;28;20504;-63
2022/03/30 02:25:00;;;;;;;39.42;21.45;;;11.50;93.40;;;;;;5095879;28;20461;-66
2022/03/30 02:27:26;;;;;;;29.27;19.02;;;11.50;93.60;;;;;;5076483;28;20043;-64
2022/03/30 02:29:56;;;;;;;41.80;19.90;;;11.50;93.60;;;;;;5077658;28;20039;-65
2022/03/30 02:32:22;;;;;;;29.38;19.42;;;11.40;93.70;;;;;;5076767;28;20157;-66
2022/03/30 02:34:48;;;;;;;37.35;20.45;;;11.50;94.00;;;;;;5077574;28;20397;-63
2022/03/30 02:37:14;;;;;;;26.70;18.83;;;11.20;95.00;;;;;;5095545;28;20024;-68
2022/03/30 02:39:41;;;;;;;31.17;19.67;;;11.20;95.30;;;;;;5094768;28;20028;-65
2022/03/30 02:42:07;;;;;;;31.52;19.75;;;11.20;95.60;;;;;;5077349;28;20024;-64
2022/03/30 02:44:34;;;;;;;34.15;21.17;;;11.10;96.10;;;;;;5095114;28;20024;-64
2022/03/30 02:47:01;;;;;;;28.08;19.38;;;11.10;96.30;;;;;;5077334;28;20032;-64
2022/03/30 02:49:27;;;;;;;34.40;21.52;;;11.20;96.40;;;;;;5077387;28;20032;-63
2022/03/30 02:51:53;;;;;;;28.75;18.55;;;11.30;96.60;;;;;;5077455;28;20113;-64
2022/03/30 02:54:20;;;;;;;32.58;20.63;;;11.30;96.80;;;;;;5076825;28;20028;-65
2022/03/30 02:56:46;;;;;;;30.67;20.55;;;11.30;97.40;;;;;;5094766;28;20101;-64
2022/03/30 02:59:12;;;;;;;35.80;22.17;;;11.20;97.60;;;;;;5096353;28;20031;-63
2022/03/30 03:01:38;;;;;;;35.75;19.90;;;11.10;98.10;;;;;;5094799;28;20028;-63
2022/03/30 03:04:04;;;;;;;32.42;20.33;;;11.10;98.00;;;;;;5095500;28;20069;-65
2022/03/30 03:06:32;;;;;;;30.73;20.05;;;11.10;98.40;;;;;;5076440;28;20111;-64
2022/03/30 03:08:58;;;;;;;31.00;21.58;;;11.10;98.70;;;;;;5094303;28;20443;-66
2022/03/30 03:11:26;;;;;;;33.13;21.15;;;11.00;98.90;;;;;;5093715;28;20059;-69
2022/03/30 03:13:52;;;;;;;36.58;21.30;;;11.00;98.50;;;;;;5076759;28;20028;-65
2022/03/30 03:16:19;;;;;;;32.58;20.83;;;11.10;98.50;;;;;;5094243;28;20032;-63
2022/03/30 03:18:45;;;;;;;32.63;20.73;;;11.00;98.40;;;;;;5094244;28;20028;-65
2022/03/30 03:21:12;;;;;;;36.00;20.80;;;11.00;98.40;;;;;;5076502;28;20024;-64
2022/03/30 03:23:38;;;;;;;37.70;21.05;;;10.90;98.30;;;;;;5076226;28;20374;-64
2022/03/30 03:26:03;;;;;;;34.00;21.70;;;11.00;98.20;;;;;;5094060;28;20033;-65
2022/03/30 03:28:31;;;;;;;32.45;20.30;;;11.00;98.00;;;;;;5094156;28;20071;-68
2022/03/30 03:30:57;;;;;;;34.60;20.27;;;11.00;98.20;;;;;;5076395;28;20500;-65
2022/03/30 03:33:25;;;;;;;36.90;20.90;;;10.90;98.40;;;;;;5076385;28;20028;-67
2022/03/30 03:35:52;;;;;;;36.78;20.77;;;11.00;98.20;;;;;;5094340;28;20075;-65
2022/03/30 03:38:18;;;;;;;32.47;20.83;;;10.90;98.30;;;;;;5093952;28;20071;-65
2022/03/30 03:40:44;;;;;;;32.85;21.63;;;11.00;98.60;;;;;;5093558;28;20525;-65
2022/03/30 03:43:10;;;;;;;32.72;20.00;;;11.00;98.60;;;;;;5094294;28;20492;-65
2022/03/30 03:45:36;;;;;;;43.20;21.50;;;11.00;99.00;;;;;;5093561;28;20028;-65
2022/03/30 03:48:02;;;;;;;33.53;21.08;;;10.90;99.40;;;;;;5095569;28;20032;-64
2022/03/30 03:50:28;;;;;;;35.97;22.08;;;10.80;99.90;;;;;;5093726;28;20446;-65
2022/03/30 03:52:55;;;;;;;32.17;21.45;;;10.90;99.90;;;;;;5093836;28;20063;-64
2022/03/30 03:55:33;;;;;;;32.65;22.13;;;10.60;99.90;;;;;;5093710;28;20020;-65
2022/03/30 03:58:00;;;;;;;35.10;19.95;;;10.70;99.90;;;;;;5074804;28;20052;-67
2022/03/30 04:00:26;;;;;;;31.33;20.90;;;10.70;99.90;;;;;;5056798;28;20048;-72
2022/03/30 04:02:51;;;;;;;32.63;22.30;;;10.70;99.90;;;;;;5074173;28;20093;-67
2022/03/30 04:05:17;;;;;;;35.50;21.65;;;10.80;99.90;;;;;;5056104;28;20020;-65
2022/03/30 04:07:43;;;;;;;34.63;22.23;;;10.80;99.90;;;;;;5073715;28;20024;-62
2022/03/30 04:10:11;;;;;;;33.33;22.50;;;10.80;99.90;;;;;;5073509;28;20094;-65
2022/03/30 04:12:38;;;;;;;33.70;21.98;;;10.60;99.90;;;;;;5072982;28;20021;-62
2022/03/30 04:15:04;;;;;;;35.22;21.58;;;10.60;99.90;;;;;;5055547;28;20104;-67
2022/03/30 04:17:32;;;;;;;32.00;21.52;;;10.40;99.90;;;;;;5073239;28;20107;-65
2022/03/30 04:19:58;;;;;;;34.95;22.10;;;10.40;99.90;;;;;;5073607;28;20024;-65
2022/03/30 04:22:23;;;;;;;35.17;24.55;;;10.50;99.90;;;;;;5055903;28;20537;-65
2022/03/30 04:24:49;;;;;;;32.88;22.17;;;10.50;99.90;;;;;;5072609;28;20433;-66
2022/03/30 04:27:16;;;;;;;40.25;22.98;;;10.40;99.90;;;;;;5073753;28;20028;-65
2022/03/30 04:29:42;;;;;;;37.20;22.65;;;10.40;99.90;;;;;;5073538;28;20032;-64
2022/03/30 04:32:09;;;;;;;33.17;21.88;;;10.30;99.90;;;;;;5056430;28;20025;-68
2022/03/30 04:34:34;;;;;;;36.22;23.40;;;10.30;99.90;;;;;;5073902;28;20085;-65
2022/03/30 04:37:01;;;;;;;33.67;21.77;;;10.20;99.90;;;;;;5074887;28;20025;-63
2022/03/30 04:39:27;;;;;;;35.58;21.80;;;10.30;99.90;;;;;;5075265;28;20016;-67
2022/03/30 04:42:00;;;;;;;37.28;22.80;;;10.30;99.90;;;;;;5057363;28;20378;-65
2022/03/30 04:44:25;;;;;;;36.00;24.05;;;10.20;99.90;;;;;;5057215;28;20400;-71
2022/03/30 04:46:51;;;;;;;37.03;23.55;;;10.30;99.90;;;;;;5055638;28;20032;-63
2022/03/30 04:49:17;;;;;;;41.38;25.60;;;10.20;99.90;;;;;;5073903;28;20055;-64
2022/03/30 04:51:43;;;;;;;41.47;25.15;;;10.20;99.90;;;;;;5055812;28;20021;-68
2022/03/30 04:54:09;;;;;;;35.40;23.33;;;10.20;99.90;;;;;;5073921;28;20023;-66
2022/03/30 04:56:35;;;;;;;31.33;22.35;;;10.20;99.90;;;;;;5071952;28;20456;-65
2022/03/30 04:59:02;;;;;;;36.97;22.42;;;10.30;99.90;;;;;;5073426;28;20032;-64
2022/03/30 05:01:29;;;;;;;35.90;22.58;;;10.10;99.90;;;;;;5055433;28;20081;-65
2022/03/30 05:03:58;;;;;;;41.33;26.40;;;10.00;99.90;;;;;;5054668;28;20035;-65
2022/03/30 05:06:24;;;;;;;46.45;25.70;;;9.90;99.90;;;;;;5073093;28;20040;-63
2022/03/30 05:08:50;;;;;;;39.85;24.48;;;9.80;99.90;;;;;;5072253;28;20157;-65
2022/03/30 05:11:17;;;;;;;40.28;24.23;;;9.90;99.90;;;;;;5072785;28;20021;-64
2022/03/30 05:13:42;;;;;;;40.75;26.15;;;9.90;99.90;;;;;;5072693;28;20067;-65
2022/03/30 05:16:09;;;;;;;43.97;25.17;;;9.80;99.90;;;;;;5055035;28;20346;-63
2022/03/30 05:18:35;;;;;;;48.95;25.83;;;9.80;99.90;;;;;;5072253;28;20029;-65
2022/03/30 05:21:01;;;;;;;40.95;25.90;;;9.70;99.90;;;;;;5054665;28;20373;-63
2022/03/30 05:23:28;;;;;;;45.92;27.15;;;9.80;99.90;;;;;;5072027;28;20017;-66
2022/03/30 05:25:53;;;;;;;44.50;26.35;;;9.60;99.90;;;;;;5047020;28;20039;-65
2022/03/30 05:28:19;;;;;;;46.53;26.50;;;9.60;99.90;;;;;;5069890;28;20029;-64
2022/03/30 05:30:45;;;;;;;49.35;29.15;;;9.60;99.90;;;;;;5073491;28;20024;-64
2022/03/30 05:33:12;;;;;;;47.80;27.33;;;9.40;99.90;;;;;;5072715;28;20020;-63
2022/03/30 05:35:38;;;;;;;42.65;26.95;;;9.40;99.90;;;;;;5074364;28;20029;-64
2022/03/30 05:38:04;;;;;;;48.65;28.13;;;9.30;99.90;;;;;;5058411;28;20078;-65
2022/03/30 05:40:33;;;;;;;46.70;28.33;;;9.20;99.90;;;;;;5076309;28;20028;-68
2022/03/30 05:42:59;;;;;;;43.72;27.92;;;9.30;99.90;;;;;;5076509;28;20020;-64
2022/03/30 05:45:28;;;;;;;32.70;18.27;;;9.40;99.90;;;;;;5075855;28;20449;-72
2022/03/30 05:47:59;;;;;;;47.53;27.10;;;9.90;99.90;;;;;;5058490;28;20473;-64
2022/03/30 05:50:26;;;;;;;39.53;25.65;;;9.70;99.90;;;;;;5054142;28;20111;-64
2022/03/30 05:53:00;;;;;;;49.47;27.88;;;9.50;99.90;;;;;;5059557;28;20021;-65
2022/03/30 05:55:27;;;;;;;44.72;27.02;;;9.40;99.90;;;;;;5077400;28;20032;-65
2022/03/30 05:57:54;;;;;;;40.50;20.33;;;9.50;99.90;;;;;;5054400;28;20160;-60
2022/03/30 06:00:20;;;;;;;52.25;29.48;;;10.00;99.90;;;;;;5055913;28;20021;-66
2022/03/30 06:02:45;;;;;;;49.20;27.50;;;9.90;99.90;;;;;;5037742;28;20027;-64
2022/03/30 06:05:12;;;;;;;47.08;27.40;;;9.80;99.90;;;;;;5054921;28;20425;-63
2022/03/30 06:07:38;;;;;;;48.75;29.15;;;9.70;99.90;;;;;;5056873;28;20040;-64
2022/03/30 06:10:04;;;;;;;45.47;27.58;;;9.60;99.90;;;;;;5055860;28;20150;-64
2022/03/30 06:12:30;;;;;;;43.67;27.13;;;9.40;99.90;;;;;;5055451;28;20024;-63
2022/03/30 06:14:59;;;;;;;46.95;28.67;;;9.40;99.90;;;;;;5055137;28;20446;-64
2022/03/30 06:17:26;;;;;;;46.45;26.10;;;9.50;99.90;;;;;;5037620;28;20106;-64
2022/03/30 06:19:53;;;;;;;45.00;27.58;;;9.20;99.90;;;;;;5043101;28;20074;-64
2022/03/30 06:22:19;;;;;;;46.63;28.65;;;9.10;99.90;;;;;;5053443;28;20036;-67
2022/03/30 06:24:47;;;;;;;48.28;28.17;;;9.30;99.90;;;;;;5055217;28;20075;-65
2022/03/30 06:27:13;;;;;;;47.67;29.55;;;9.30;99.90;;;;;;5063477;28;20378;-64
2022/03/30 06:29:41;;;;;;;48.40;26.88;;;9.50;99.90;;;;;;5068535;28;20055;-68
2022/03/30 06:32:07;;;;;;;49.95;29.25;;;9.40;99.90;;;;;;5044857;28;20070;-65
2022/03/30 06:34:35;;;;;;;51.47;29.17;;;9.40;99.90;;;;;;5049558;28;20039;-64
2022/03/30 06:37:01;;;;;;;45.38;27.10;;;9.40;99.90;;;;;;5062913;28;20055;-67
2022/03/30 06:39:27;;;;;;;45.97;27.23;;;9.40;99.90;;;;;;5074837;28;20055;-66
2022/03/30 06:41:54;;;;;;;54.63;29.02;;;9.40;99.90;;;;;;5074812;28;20107;-68
2022/03/30 06:44:19;;;;;;;45.38;27.20;;;9.40;99.90;;;;;;5060044;28;20020;-65
2022/03/30 06:46:46;;;;;;;46.95;27.45;;;9.40;99.90;;;;;;5075624;28;20024;-65
2022/03/30 06:49:12;;;;;;;45.88;27.65;;;9.40;99.90;;;;;;5075292;28;20029;-67
2022/03/30 06:51:38;;;;;;;50.97;28.65;;;9.40;99.90;;;;;;5050297;28;20052;-69
2022/03/30 06:54:05;;;;;;;41.25;27.50;;;9.40;99.90;;;;;;5028948;28;20193;-65
2022/03/30 06:56:34;;;;;;;43.72;26.42;;;9.50;99.90;;;;;;5049312;28;20414;-64
2022/03/30 06:59:00;;;;;;;47.03;27.55;;;9.50;99.90;;;;;;5069163;28;20028;-65
2022/03/30 07:01:25;;;;;;;50.47;28.23;;;9.40;99.90;;;;;;5056112;28;20112;-66
2022/03/30 07:03:51;;;;;;;52.65;29.35;;;9.40;99.90;;;;;;5068969;28;20117;-67
2022/03/30 07:06:19;;;;;;;47.65;28.23;;;9.50;99.90;;;;;;5056122;28;20036;-65
2022/03/30 07:11:30;;;;;;;53.55;26.80;;;9.60;99.90;;;;;;5054853;28;20032;-64
2022/03/30 07:13:58;;;;;;;44.88;27.30;;;9.60;99.90;;;;;;5054069;28;20459;-69
2022/03/30 07:16:25;;;;;;;42.65;26.45;;;9.50;99.90;;;;;;5054814;28;20112;-65
2022/03/30 07:18:53;;;;;;;45.55;27.10;;;9.60;99.90;;;;;;5037944;28;20378;-66
2022/03/30 07:21:21;;;;;;;47.97;27.92;;;9.60;99.90;;;;;;5064094;28;20028;-65
2022/03/30 07:23:47;;;;;;;42.15;26.60;;;9.70;99.90;;;;;;5066791;28;20036;-66
2022/03/30 07:26:13;;;;;;;42.65;27.50;;;9.70;99.90;;;;;;5046325;28;20041;-67
2022/03/30 07:28:39;;;;;;;47.13;27.95;;;9.70;99.90;;;;;;5048675;28;20024;-76
2022/03/30 07:31:05;;;;;;;47.92;28.40;;;9.70;99.90;;;;;;5057182;28;20032;-66
2022/03/30 07:33:33;;;;;;;42.10;27.20;;;9.70;99.90;;;;;;5075223;28;20096;-66
2022/03/30 07:36:00;;;;;;;49.35;28.58;;;9.80;99.90;;;;;;5075459;28;20274;-66
2022/03/30 07:38:26;;;;;;;46.13;27.15;;;9.90;99.90;;;;;;5074842;28;20069;-63
2022/03/30 07:40:53;;;;;;;47.28;26.90;;;9.90;99.90;;;;;;5056950;28;20119;-64
2022/03/30 07:43:20;;;;;;;42.03;26.30;;;9.90;99.90;;;;;;5074633;28;20102;-69
2022/03/30 07:45:47;;;;;;;50.55;26.70;;;10.00;99.90;;;;;;5072666;28;20032;-68
2022/03/30 07:48:13;;;;;;;48.05;29.17;;;10.10;99.90;;;;;;5074180;28;20039;-64
2022/03/30 07:50:40;;;;;;;47.75;28.55;;;10.10;99.90;;;;;;5073795;28;20410;-65
2022/03/30 07:53:08;;;;;;;41.80;26.38;;;10.00;99.90;;;;;;5056062;28;20029;-66
2022/03/30 07:55:42;;;;;;;92.13;31.33;;;10.10;99.90;;;;;;5060077;28;20032;-65
2022/03/30 07:58:09;;;;;;;368.17;60.22;;;10.10;99.90;;;;;;5053638;28;20529;-69
2022/03/30 08:00:36;;;;;;;49.90;27.42;;;10.30;99.90;;;;;;5036242;28;20067;-64
2022/03/30 08:03:03;;;;;;;46.20;27.05;;;10.00;99.90;;;;;;5035363;28;20578;-64
2022/03/30 08:05:29;;;;;;;42.75;26.67;;;10.10;99.90;;;;;;5053611;28;20374;-65
2022/03/30 08:07:55;;;;;;;37.90;26.35;;;10.20;99.90;;;;;;5034774;28;20059;-64
2022/03/30 08:10:21;;;;;;;42.65;27.48;;;10.30;99.90;;;;;;5035574;28;20083;-65
2022/03/30 08:12:48;;;;;;;41.85;26.25;;;10.40;99.90;;;;;;5034998;28;20124;-67
2022/03/30 08:15:14;;;;;;;43.20;26.33;;;10.40;99.90;;;;;;5050829;28;20111;-65
2022/03/30 08:17:41;;;;;;;39.17;25.92;;;10.50;99.90;;;;;;5072858;28;20067;-65
2022/03/30 08:20:08;;;;;;;48.67;25.70;;;10.60;99.90;;;;;;5072224;28;20060;-66
2022/03/30 08:22:34;;;;;;;46.80;26.15;;;10.60;99.90;;;;;;5054463;28;20488;-64
2022/03/30 08:25:07;;;;;;;40.10;26.15;;;10.70;99.90;;;;;;5062598;28;20029;-65
2022/03/30 08:27:35;;;;;;;40.05;24.60;;;10.80;99.90;;;;;;5043501;28;20029;-63
2022/03/30 08:30:03;;;;;;;39.42;24.20;;;10.60;99.90;;;;;;5046836;28;20029;-65
2022/03/30 08:32:29;;;;;;;37.50;24.67;;;10.70;99.90;;;;;;5035340;28;20017;-66
2022/03/30 08:34:58;;;;;;;38.58;23.05;;;10.80;99.90;;;;;;5034988;28;20021;-67
2022/03/30 08:37:24;;;;;;;39.85;24.77;;;10.90;99.90;;;;;;5035182;28;20043;-68
2022/03/30 08:39:54;;;;;;;34.60;23.42;;;11.00;99.90;;;;;;5052646;28;20025;-66
2022/03/30 08:42:21;;;;;;;38.70;24.30;;;10.90;99.90;;;;;;5035410;28;20429;-67
2022/03/30 08:44:48;;;;;;;40.03;24.60;;;11.10;99.90;;;;;;5038068;28;20033;-67
2022/03/30 08:47:24;;;;;;;35.08;24.05;;;11.30;99.90;;;;;;5066991;28;20032;-70
2022/03/30 08:49:51;;;;;;;33.63;23.77;;;11.50;99.90;;;;;;5075314;28;20051;-71
2022/03/30 08:52:19;;;;;;;43.20;25.05;;;11.70;99.90;;;;;;5072846;28;20047;-70
2022/03/30 08:54:47;;;;;;;38.60;24.33;;;11.80;99.90;;;;;;5058753;28;20021;-73
2022/03/30 08:57:16;;;;;;;48.65;24.80;;;12.00;99.90;;;;;;5052401;28;20061;-67
2022/03/30 09:00:02;;;;;;;40.75;22.92;;;12.20;99.90;;;;;;5051199;28;20074;-68
2022/03/30 09:02:55;;;;;;;37.78;20.40;;;12.40;99.90;;;;;;5071451;28;20032;-69
2022/03/30 09:05:25;;;;;;;29.83;21.10;;;14.00;99.90;;;;;;5051283;28;20036;-73
2022/03/30 09:08:18;;;;;;;31.98;20.95;;;14.30;99.90;;;;;;5046181;28;20037;-73
2022/03/30 09:10:47;;;;;;;34.78;22.67;;;14.80;99.90;;;;;;5050488;28;20133;-67
2022/03/30 09:13:17;;;;;;;34.80;22.23;;;14.90;99.90;;;;;;5070590;28;20032;-68
2022/03/30 09:15:45;;;;;;;31.05;23.63;;;14.40;99.90;;;;;;5052721;28;20032;-67
2022/03/30 09:18:12;;;;;;;32.17;22.65;;;13.70;99.90;;;;;;5053061;28;20037;-67
2022/03/30 09:20:46;;;;;;;38.17;24.45;;;13.20;99.90;;;;;;5053066;28;20036;-68
2022/03/30 09:23:14;;;;;;;35.38;24.67;;;12.90;99.90;;;;;;5070399;28;20118;-68
2022/03/30 09:25:45;;;;;;;35.22;23.70;;;12.40;99.90;;;;;;5066534;28;20085;-70
2022/03/30 09:28:11;;;;;;;58.13;26.23;;;12.20;99.90;;;;;;5049203;28;20119;-69
2022/03/30 09:30:37;;;;;;;38.13;23.15;;;12.00;99.90;;;;;;5070731;28;20438;-70
2022/03/30 09:33:10;;;;;;;30.73;22.58;;;11.80;99.90;;;;;;5073926;28;20089;-68
2022/03/30 09:35:41;;;;;;;34.75;22.40;;;11.90;99.90;;;;;;5073091;28;20101;-70
2022/03/30 09:38:13;;;;;;;32.47;21.60;;;11.90;99.90;;;;;;5071218;28;20197;-66
2022/03/30 09:40:49;;;;;;;31.23;22.45;;;11.80;99.90;;;;;;5070234;28;20032;-67
2022/03/30 09:43:30;;;;;;;33.17;21.40;;;11.90;99.90;;;;;;5055639;28;20101;-68
2022/03/30 09:46:11;;;;;;;36.10;25.33;;;12.00;99.90;;;;;;5055720;28;20046;-68
2022/03/30 09:48:39;;;;;;;35.17;22.33;;;12.00;99.90;;;;;;5051513;28;20040;-73
2022/03/30 09:51:09;;;;;;;26.25;16.80;;;12.80;99.90;;;;;;5034014;28;20456;-63
2022/03/30 09:53:36;;;;;;;31.80;21.40;;;14.10;99.90;;;;;;5058948;28;20032;-64
2022/03/30 09:56:18;;;;;;;31.15;19.60;;;13.80;99.90;;;;;;5052450;28;20093;-66
2022/03/30 09:58:49;;;;;;;30.45;20.83;;;13.40;99.90;;;;;;5071930;28;20403;-65
2022/03/30 10:01:22;;;;;;;35.95;22.40;;;13.00;99.90;;;;;;5054809;28;20120;-65
2022/03/30 10:04:00;;;;;;;27.65;19.35;;;12.70;99.90;;;;;;5073088;28;20032;-69
2022/03/30 10:06:40;;;;;;;28.42;20.00;;;12.90;99.90;;;;;;5072594;28;20557;-64
2022/03/30 10:09:06;;;;;;;31.25;19.77;;;12.80;99.90;;;;;;5055184;28;20036;-64
2022/03/30 10:11:33;;;;;;;28.27;19.50;;;12.70;99.90;;;;;;5071557;28;20085;-64
2022/03/30 10:14:05;;;;;;;30.17;19.10;;;12.60;99.90;;;;;;5054672;28;20064;-65
2022/03/30 10:16:31;;;;;;;29.13;21.25;;;12.40;99.90;;;;;;5033485;28;20028;-63
2022/03/30 10:18:56;;;;;;;31.67;21.08;;;12.40;99.90;;;;;;5043179;28;20059;-64
2022/03/30 10:21:57;;;;;;;34.67;21.58;;;12.40;99.90;;;;;;5064974;28;20021;-63
2022/03/30 10:24:31;;;;;;;26.58;18.55;;;12.50;99.90;;;;;;5039547;28;20032;-67
2022/03/30 10:27:34;;;;;;;30.10;19.25;;;13.20;99.90;;;;;;5036648;28;20033;-67
2022/03/30 10:30:05;;;;;;;29.98;17.85;;;13.70;99.90;;;;;;5057810;28;20029;-67
2022/03/30 10:32:36;;;;;;;24.90;16.20;;;14.30;99.90;;;;;;5069589;28;20051;-68
2022/03/30 10:35:05;;;;;;;;;;;14.30;99.90;;;;;;5051881;28;20082;-68
2022/03/30 10:37:42;;;;;;;26.73;19.23;;;14.30;99.90;;;;;;5055077;28;19911;-71
2022/03/30 10:40:20;;;;;;;30.33;17.67;;;14.40;99.90;;;;;;5055107;28;20553;-68
2022/03/30 10:42:46;;;;;;;25.00;17.02;;;14.20;99.90;;;;;;5071017;28;20033;-70
2022/03/30 10:45:39;;;;;;;29.95;17.88;;;14.20;99.90;;;;;;5043428;28;20206;-65
2022/03/30 10:48:14;;;;;;;29.27;18.45;;;14.10;99.90;;;;;;5052910;28;20094;-64
2022/03/30 10:50:58;;;;;;;28.15;20.00;;;13.80;99.90;;;;;;5053767;28;20178;-64
2022/03/30 10:53:38;;;;;;;25.20;18.27;;;13.80;99.90;;;;;;5053319;28;20056;-65
2022/03/30 10:56:07;;;;;;;27.38;17.38;;;13.70;99.90;;;;;;5034539;28;20044;-64
2022/03/30 10:58:34;;;;;;;27.88;19.55;;;13.40;99.90;;;;;;5053350;28;20168;-65
2022/03/30 11:01:21;;;;;;;28.05;18.92;;;13.40;99.90;;;;;;5071234;28;20597;-64
2022/03/30 11:04:03;;;;;;;22.95;16.55;;;13.30;99.90;;;;;;5055072;28;20051;-64
2022/03/30 11:06:34;;;;;;;;;;;13.20;99.90;;;;;;5055827;28;20020;-64
2022/03/30 11:09:03;;;;;;;24.38;16.27;;;13.20;99.90;;;;;;5054640;28;19957;-66
2022/03/30 11:11:34;;;;;;;24.92;16.30;;;13.20;99.90;;;;;;5055692;28;20028;-65
2022/03/30 11:14:39;;;;;;;23.88;16.92;;;13.40;99.90;;;;;;5047166;28;20494;-65
2022/03/30 11:17:30;;;;;;;22.95;15.35;;;13.50;99.90;;;;;;5070121;28;20374;-65
2022/03/30 11:20:02;;;;;;;22.83;14.98;;;13.50;99.90;;;;;;5044920;28;20036;-71
2022/03/30 11:22:30;;;;;;;26.17;15.50;;;13.40;99.90;;;;;;5044966;28;20354;-65
2022/03/30 11:25:19;;;;;;;23.38;16.52;;;13.40;99.90;;;;;;5065363;28;20531;-63
2022/03/30 11:28:10;;;;;;;21.20;14.63;;;13.40;99.90;;;;;;5070847;28;20048;-66
2022/03/30 11:30:43;;;;;;;25.00;15.13;;;13.40;99.90;;;;;;5042245;28;20029;-66
2022/03/30 11:33:13;;;;;;;26.55;16.08;;;13.50;99.90;;;;;;5068265;28;20500;-65
2022/03/30 11:35:43;;;;;;;25.33;16.05;;;13.50;99.90;;;;;;5052912;28;20032;-64
2022/03/30 11:38:39;;;;;;;19.00;15.02;;;13.50;99.90;;;;;;5066683;28;20105;-64
2022/03/30 11:41:12;;;;;;;21.10;14.95;;;13.40;99.90;;;;;;5067417;28;20538;-66
2022/03/30 11:46:32;;;;;;;23.55;14.50;;;13.50;99.90;;;;;;5072615;28;20312;-79
2022/03/30 11:49:06;;;;;;;47.03;22.23;;;13.80;99.90;;;;;;5053507;28;20036;-81
2022/03/30 11:51:36;;;;;;;20.27;13.73;;;15.50;99.90;;;;;;5054226;28;20031;-66
2022/03/30 11:54:16;;;;;;;16.92;13.20;;;14.90;99.30;;;;;;5053890;28;20025;-64
2022/03/30 11:56:44;;;;;;;17.10;12.50;;;14.60;99.70;;;;;;5071911;28;20118;-64
2022/03/30 11:59:10;;;;;;;13.98;11.38;;;14.10;99.90;;;;;;5071329;28;20055;-68
2022/03/30 12:01:37;;;;;;;18.05;12.55;;;14.30;99.60;;;;;;5071807;28;20020;-64
2022/03/30 12:04:05;;;;;;;18.08;12.48;;;14.20;99.90;;;;;;5071936;28;20044;-63
2022/03/30 12:06:45;;;;;;;21.83;14.60;;;13.80;99.90;;;;;;5056254;28;20078;-64
2022/03/30 12:09:15;;;;;;;18.65;12.32;;;13.50;99.90;;;;;;5058131;28;20099;-66
2022/03/30 12:11:41;;;;;;;19.92;13.82;;;13.30;99.90;;;;;;5074836;28;20077;-66
2022/03/30 12:14:11;;;;;;;20.83;14.45;;;13.30;99.90;;;;;;5053736;28;20135;-65
2022/03/30 12:16:38;;;;;;;20.27;14.48;;;13.30;99.90;;;;;;5054286;28;20052;-66
2022/03/30 12:19:09;;;;;;;23.25;13.98;;;13.10;99.90;;;;;;5053094;28;20556;-65
2022/03/30 12:21:38;;;;;;;19.55;14.63;;;13.20;99.90;;;;;;5057024;28;20078;-65
2022/03/30 12:24:11;;;;;;;19.30;13.45;;;13.20;99.90;;;;;;5072062;28;20102;-64
2022/03/30 12:26:37;;;;;;;20.52;13.57;;;13.20;99.90;;;;;;5054252;28;20085;-64
2022/03/30 12:29:08;;;;;;;24.23;13.57;;;13.10;99.90;;;;;;5055001;28;20385;-66
2022/03/30 12:31:50;;;;;;;18.60;13.43;;;12.90;99.90;;;;;;5055961;28;20024;-65
2022/03/30 12:34:17;;;;;;;19.38;12.43;;;13.10;99.90;;;;;;5073319;28;20137;-65
2022/03/30 12:36:54;;;;;;;23.50;14.45;;;13.30;99.90;;;;;;5072915;28;20158;-66
2022/03/30 12:39:23;;;;;;;18.35;13.30;;;13.20;99.90;;;;;;5055113;28;20448;-68
2022/03/30 12:42:06;;;;;;;20.17;13.90;;;13.40;99.70;;;;;;5072486;28;20357;-64
2022/03/30 12:45:10;;;;;;;17.13;11.32;;;13.50;99.70;;;;;;5054073;28;20031;-65
2022/03/30 12:47:51;;;;;;;19.15;12.27;;;13.50;99.60;;;;;;5055137;28;20029;-66